Дата Пункты Температура Давл., мм. Влажн., % Ветер Погодные явления
Воздуха Воды Направл. Скорость
07.03.15 10:00 Одесса 2.0 4.0 773 78 С 4 23 часа
07.03.15 07:00 Одесса 3.0 4.0 773 75 С 4 20 часов
07.03.15 04:00 Одесса 5.0 4.0 771 67 С 6 17 часов
07.03.15 01:00 Одесса 6.0 4.0 771 71 С-В 2 14 часов
07.03.15 10:00 Одесса 5.0 3.0 771 72 С 4 11 часов
07.03.15 07:00 Одесса 1.0 3.0 771 80 С-З 3 08 часов
07.03.15 04:00 Одесса 1.0 3.0 770 80 С-З 3 05 часов
07.03.15 01:00 Одесса 2.0 3.0 769 88 С 2 02 часа
06.03.15 10:00 Одесса 4.0 3.0 769 80 С 3 23 часа
06.03.15 07:00 Одесса 4.0 3.0 768 83 С 2 20 часов
06.03.15 04:00 Одесса 4.0 4.0 768 80 С-В 4 17 часов
06.03.15 01:00 Одесса 4.0 4.0 767 75 С-В 6 14 часов
06.03.15 10:00 Одесса 4.0 3.0 768 88 С-В 4 11 часов
06.03.15 07:00 Одесса 3.0 3.0 768 88 С 2 08 часов
06.03.15 04:00 Одесса 3.0 3.0 767 86 С 2 05 часов
06.03.15 01:00 Одесса 2.0 3.0 767 79 С 1 02 часа
05.03.15 10:00 Одесса 4.0 4.0 767 74 С-З 1 23 часа
05.03.15 07:00 Одесса 5.0 4.0 767 64 Ю-З 1 20 часов
05.03.15 04:00 Одесса 6.0 3.0 766 58 С 1 17 часов
05.03.15 01:00 Одесса 9.0 3.0 766 45 С 2 14 часов
Количество строк
321 322 323 324 325 326 327 328 329 330
Page 328 of 394